sensor_id;sensor_type;location;lat;lon;timestamp;pressure;altitude;pressure_sealevel;temperature;humidity
6829;BME280;17930;48.592;8.868;2023-04-01T00:00:36;95490.09;;;7.78;100.00
6829;BME280;17930;48.592;8.868;2023-04-01T00:03:02;95491.06;;;7.82;100.00
6829;BME280;17930;48.592;8.868;2023-04-01T00:05:30;95492.63;;;7.83;100.00
6829;BME280;17930;48.592;8.868;2023-04-01T00:07:56;95490.78;;;7.83;100.00
6829;BME280;17930;48.592;8.868;2023-04-01T00:10:24;95484.03;;;7.82;100.00
6829;BME280;17930;48.592;8.868;2023-04-01T00:12:51;95482.53;;;7.81;100.00
6829;BME280;17930;48.592;8.868;2023-04-01T00:15:19;95479.66;;;7.83;100.00
6829;BME280;17930;48.592;8.868;2023-04-01T00:17:46;95476.53;;;7.81;100.00
6829;BME280;17930;48.592;8.868;2023-04-01T00:20:12;95480.22;;;7.80;100.00
6829;BME280;17930;48.592;8.868;2023-04-01T00:22:40;95478.97;;;7.77;100.00
6829;BME280;17930;48.592;8.868;2023-04-01T00:25:07;95475.59;;;7.77;100.00
6829;BME280;17930;48.592;8.868;2023-04-01T00:27:35;95474.06;;;7.76;100.00
6829;BME280;17930;48.592;8.868;2023-04-01T00:30:02;95478.25;;;7.72;100.00
6829;BME280;17930;48.592;8.868;2023-04-01T00:32:29;95476.25;;;7.69;100.00
6829;BME280;17930;48.592;8.868;2023-04-01T00:34:56;95481.25;;;7.65;100.00
6829;BME280;17930;48.592;8.868;2023-04-01T00:37:25;95484.59;;;7.66;100.00
6829;BME280;17930;48.592;8.868;2023-04-01T00:39:51;95488.75;;;7.67;100.00
6829;BME280;17930;48.592;8.868;2023-04-01T00:42:18;95475.19;;;7.70;100.00
6829;BME280;17930;48.592;8.868;2023-04-01T00:44:49;95474.22;;;7.66;100.00
6829;BME280;17930;48.592;8.868;2023-04-01T00:47:16;95473.34;;;7.57;100.00
6829;BME280;17930;48.592;8.868;2023-04-01T00:49:45;95475.25;;;7.52;100.00
6829;BME280;17930;48.592;8.868;2023-04-01T00:52:16;95480.88;;;7.40;100.00
6829;BME280;17930;48.592;8.868;2023-04-01T00:54:46;95478.69;;;7.47;100.00
6829;BME280;17930;48.592;8.868;2023-04-01T00:57:18;95482.94;;;7.57;100.00
6829;BME280;17930;48.592;8.868;2023-04-01T00:59:49;95484.19;;;7.59;100.00
6829;BME280;17930;48.592;8.868;2023-04-01T01:02:19;95480.56;;;7.60;100.00
6829;BME280;17930;48.592;8.868;2023-04-01T01:04:46;95486.22;;;7.62;100.00
6829;BME280;17930;48.592;8.868;2023-04-01T01:07:20;95483.63;;;7.62;100.00
6829;BME280;17930;48.592;8.868;2023-04-01T01:09:53;95477.44;;;7.58;100.00
6829;BME280;17930;48.592;8.868;2023-04-01T01:12:27;95477.25;;;7.55;100.00
6829;BME280;17930;48.592;8.868;2023-04-01T01:15:08;95471.38;;;7.49;100.00
6829;BME280;17930;48.592;8.868;2023-04-01T01:17:44;95475.41;;;7.42;100.00
6829;BME280;17930;48.592;8.868;2023-04-01T01:20:42;95480.06;;;7.40;100.00
6829;BME280;17930;48.592;8.868;2023-04-01T01:23:44;95489.13;;;7.42;100.00
6829;BME280;17930;48.592;8.868;2023-04-01T01:26:29;95493.75;;;7.45;100.00
6829;BME280;17930;48.592;8.868;2023-04-01T01:29:11;95493.16;;;7.48;100.00
6829;BME280;17930;48.592;8.868;2023-04-01T01:31:50;95492.41;;;7.48;100.00
6829;BME280;17930;48.592;8.868;2023-04-01T01:34:24;95496.06;;;7.47;100.00
6829;BME280;17930;48.592;8.868;2023-04-01T01:36:59;95488.13;;;7.38;100.00
6829;BME280;17930;48.592;8.868;2023-04-01T01:39:30;95485.06;;;7.36;100.00
6829;BME280;17930;48.592;8.868;2023-04-01T01:42:02;95481.78;;;7.31;100.00
6829;BME280;17930;48.592;8.868;2023-04-01T01:44:30;95488.69;;;7.35;100.00
6829;BME280;17930;48.592;8.868;2023-04-01T01:46:59;95485.63;;;7.33;100.00
6829;BME280;17930;48.592;8.868;2023-04-01T01:49:27;95480.94;;;7.35;100.00
6829;BME280;17930;48.592;8.868;2023-04-01T01:51:57;95480.94;;;7.35;100.00
6829;BME280;17930;48.592;8.868;2023-04-01T01:54:23;95470.06;;;7.33;100.00
6829;BME280;17930;48.592;8.868;2023-04-01T01:56:55;95478.03;;;7.37;100.00
6829;BME280;17930;48.592;8.868;2023-04-01T01:59:27;95471.59;;;7.34;100.00
6829;BME280;17930;48.592;8.868;2023-04-01T02:01:55;95476.25;;;7.37;100.00
6829;BME280;17930;48.592;8.868;2023-04-01T02:04:22;95472.50;;;7.43;100.00
6829;BME280;17930;48.592;8.868;2023-04-01T02:06:53;95476.25;;;7.37;100.00
6829;BME280;17930;48.592;8.868;2023-04-01T02:09:23;95484.19;;;7.27;100.00
6829;BME280;17930;48.592;8.868;2023-04-01T02:11:52;95490.97;;;7.23;100.00
6829;BME280;17930;48.592;8.868;2023-04-01T02:14:21;95480.09;;;7.21;100.00
6829;BME280;17930;48.592;8.868;2023-04-01T02:16:51;95485.22;;;7.26;100.00
6829;BME280;17930;48.592;8.868;2023-04-01T02:19:20;95482.13;;;7.24;100.00
6829;BME280;17930;48.592;8.868;2023-04-01T02:21:49;95490.41;;;7.26;100.00
6829;BME280;17930;48.592;8.868;2023-04-01T02:24:18;95487.16;;;7.34;100.00
6829;BME280;17930;48.592;8.868;2023-04-01T02:26:50;95494.41;;;7.37;100.00
6829;BME280;17930;48.592;8.868;2023-04-01T02:29:20;95486.81;;;7.41;100.00
6829;BME280;17930;48.592;8.868;2023-04-01T02:31:49;95487.72;;;7.31;100.00
6829;BME280;17930;48.592;8.868;2023-04-01T02:34:16;95490.81;;;7.33;100.00
6829;BME280;17930;48.592;8.868;2023-04-01T02:36:43;95489.75;;;7.34;100.00
6829;BME280;17930;48.592;8.868;2023-04-01T02:39:10;95489.84;;;7.29;100.00
6829;BME280;17930;48.592;8.868;2023-04-01T02:41:40;95490.97;;;7.23;100.00
6829;BME280;17930;48.592;8.868;2023-04-01T02:44:10;95480.94;;;7.17;100.00
6829;BME280;17930;48.592;8.868;2023-04-01T02:46:37;95477.50;;;7.21;100.00
6829;BME280;17930;48.592;8.868;2023-04-01T02:49:04;95470.22;;;7.23;100.00
6829;BME280;17930;48.592;8.868;2023-04-01T02:51:31;95478.72;;;7.11;100.00
6829;BME280;17930;48.592;8.868;2023-04-01T02:53:58;95471.09;;;7.01;100.00
6829;BME280;17930;48.592;8.868;2023-04-01T02:56:25;95470.28;;;7.00;100.00
6829;BME280;17930;48.592;8.868;2023-04-01T02:58:52;95473.88;;;6.86;100.00
6829;BME280;17930;48.592;8.868;2023-04-01T03:01:21;95481.72;;;6.81;100.00
6829;BME280;17930;48.592;8.868;2023-04-01T03:03:47;95480.22;;;6.75;100.00
6829;BME280;17930;48.592;8.868;2023-04-01T03:06:15;95486.38;;;6.79;100.00
6829;BME280;17930;48.592;8.868;2023-04-01T03:08:43;95488.78;;;6.75;100.00
6829;BME280;17930;48.592;8.868;2023-04-01T03:11:10;95486.59;;;6.64;100.00
6829;BME280;17930;48.592;8.868;2023-04-01T03:13:37;95483.59;;;6.75;100.00
6829;BME280;17930;48.592;8.868;2023-04-01T03:16:04;95492.59;;;6.78;100.00
6829;BME280;17930;48.592;8.868;2023-04-01T03:18:32;95494.59;;;6.86;100.00
6829;BME280;17930;48.592;8.868;2023-04-01T03:21:12;95490.03;;;6.78;100.00
6829;BME280;17930;48.592;8.868;2023-04-01T03:23:39;95488.38;;;6.87;100.00
6829;BME280;17930;48.592;8.868;2023-04-01T03:26:05;95481.16;;;7.02;100.00
6829;BME280;17930;48.592;8.868;2023-04-01T03:28:32;95488.44;;;7.00;100.00
6829;BME280;17930;48.592;8.868;2023-04-01T03:30:59;95488.09;;;6.88;100.00
6829;BME280;17930;48.592;8.868;2023-04-01T03:33:25;95483.53;;;6.99;100.00
6829;BME280;17930;48.592;8.868;2023-04-01T03:35:53;95483.53;;;6.99;100.00
6829;BME280;17930;48.592;8.868;2023-04-01T03:38:20;95477.22;;;7.05;100.00
6829;BME280;17930;48.592;8.868;2023-04-01T03:40:47;95483.47;;;7.04;100.00
6829;BME280;17930;48.592;8.868;2023-04-01T03:43:13;95496.00;;;6.97;100.00
6829;BME280;17930;48.592;8.868;2023-04-01T03:45:43;95483.19;;;6.87;100.00
6829;BME280;17930;48.592;8.868;2023-04-01T03:48:10;95484.31;;;6.81;100.00
6829;BME280;17930;48.592;8.868;2023-04-01T03:50:37;95472.38;;;6.80;100.00
6829;BME280;17930;48.592;8.868;2023-04-01T03:53:05;95469.84;;;6.75;100.00
6829;BME280;17930;48.592;8.868;2023-04-01T03:55:32;95465.88;;;6.64;100.00
6829;BME280;17930;48.592;8.868;2023-04-01T03:57:59;95470.91;;;6.56;100.00
6829;BME280;17930;48.592;8.868;2023-04-01T04:00:27;95463.44;;;6.49;100.00
6829;BME280;17930;48.592;8.868;2023-04-01T04:02:54;95458.13;;;6.41;100.00
6829;BME280;17930;48.592;8.868;2023-04-01T04:05:21;95465.94;;;6.36;100.00
6829;BME280;17930;48.592;8.868;2023-04-01T04:07:48;95466.00;;;6.31;100.00
6829;BME280;17930;48.592;8.868;2023-04-01T04:10:16;95459.28;;;6.30;100.00
6829;BME280;17930;48.592;8.868;2023-04-01T04:12:43;95461.38;;;6.28;100.00
6829;BME280;17930;48.592;8.868;2023-04-01T04:15:11;95464.84;;;6.18;100.00
6829;BME280;17930;48.592;8.868;2023-04-01T04:17:37;95461.28;;;6.14;100.00
6829;BME280;17930;48.592;8.868;2023-04-01T04:20:05;95473.78;;;6.08;100.00
6829;BME280;17930;48.592;8.868;2023-04-01T04:22:32;95485.72;;;6.04;100.00
6829;BME280;17930;48.592;8.868;2023-04-01T04:24:58;95472.66;;;6.13;100.00
6829;BME280;17930;48.592;8.868;2023-04-01T04:27:26;95471.56;;;6.19;100.00
6829;BME280;17930;48.592;8.868;2023-04-01T04:29:53;95468.66;;;6.26;100.00
6829;BME280;17930;48.592;8.868;2023-04-01T04:32:19;95466.22;;;6.34;100.00
6829;BME280;17930;48.592;8.868;2023-04-01T04:34:46;95463.25;;;6.46;100.00
6829;BME280;17930;48.592;8.868;2023-04-01T04:37:13;95463.88;;;6.56;100.00
6829;BME280;17930;48.592;8.868;2023-04-01T04:39:39;95458.38;;;6.63;100.00
6829;BME280;17930;48.592;8.868;2023-04-01T04:42:06;95465.03;;;6.68;100.00
6829;BME280;17930;48.592;8.868;2023-04-01T04:44:34;95469.84;;;6.75;100.00
6829;BME280;17930;48.592;8.868;2023-04-01T04:47:00;95463.22;;;6.87;100.00
6829;BME280;17930;48.592;8.868;2023-04-01T04:49:27;95466.50;;;6.93;100.00
6829;BME280;17930;48.592;8.868;2023-04-01T04:51:54;95471.09;;;7.01;100.00
6829;BME280;17930;48.592;8.868;2023-04-01T04:54:20;95470.50;;;7.04;100.00
6829;BME280;17930;48.592;8.868;2023-04-01T04:56:47;95469.38;;;7.10;100.00
6829;BME280;17930;48.592;8.868;2023-04-01T04:59:13;95463.16;;;7.11;100.00
6829;BME280;17930;48.592;8.868;2023-04-01T05:01:41;95459.03;;;7.10;100.00
6829;BME280;17930;48.592;8.868;2023-04-01T05:04:08;95460.00;;;7.13;100.00
6829;BME280;17930;48.592;8.868;2023-04-01T05:06:35;95462.09;;;7.12;100.00
6829;BME280;17930;48.592;8.868;2023-04-01T05:09:02;95466.66;;;7.19;100.00
6829;BME280;17930;48.592;8.868;2023-04-01T05:11:29;95458.31;;;7.22;100.00
6829;BME280;17930;48.592;8.868;2023-04-01T05:13:55;95452.78;;;7.29;100.00
6829;BME280;17930;48.592;8.868;2023-04-01T05:16:22;95461.16;;;7.39;100.00
6829;BME280;17930;48.592;8.868;2023-04-01T05:18:50;95451.06;;;7.38;100.00
6829;BME280;17930;48.592;8.868;2023-04-01T05:21:16;95447.81;;;7.46;100.00
6829;BME280;17930;48.592;8.868;2023-04-01T05:23:43;95449.38;;;7.47;100.00
6829;BME280;17930;48.592;8.868;2023-04-01T05:26:11;95436.69;;;7.45;100.00
6829;BME280;17930;48.592;8.868;2023-04-01T05:28:39;95448.59;;;7.46;100.00
6829;BME280;17930;48.592;8.868;2023-04-01T05:31:06;95449.38;;;7.47;100.00
6829;BME280;17930;48.592;8.868;2023-04-01T05:33:33;95444.88;;;7.52;100.00
6829;BME280;17930;48.592;8.868;2023-04-01T05:36:08;95444.00;;;7.57;100.00
6829;BME280;17930;48.592;8.868;2023-04-01T05:38:34;95439.22;;;7.50;100.00
6829;BME280;17930;48.592;8.868;2023-04-01T05:41:02;95429.59;;;7.51;100.00
6829;BME280;17930;48.592;8.868;2023-04-01T05:43:29;95435.53;;;7.51;100.00
6829;BME280;17930;48.592;8.868;2023-04-01T05:45:56;95439.69;;;7.52;100.00
6829;BME280;17930;48.592;8.868;2023-04-01T05:48:23;95429.88;;;7.49;100.00
6829;BME280;17930;48.592;8.868;2023-04-01T05:50:49;95436.09;;;7.48;100.00
6829;BME280;17930;48.592;8.868;2023-04-01T05:53:17;95429.66;;;7.46;100.00
6829;BME280;17930;48.592;8.868;2023-04-01T05:55:44;95445.34;;;7.54;100.00
6829;BME280;17930;48.592;8.868;2023-04-01T05:58:10;95432.50;;;7.63;100.00
6829;BME280;17930;48.592;8.868;2023-04-01T06:00:37;95431.66;;;7.67;100.00
6829;BME280;17930;48.592;8.868;2023-04-01T06:03:04;95428.97;;;7.72;100.00
6829;BME280;17930;48.592;8.868;2023-04-01T06:05:38;95422.50;;;7.69;100.00
6829;BME280;17930;48.592;8.868;2023-04-01T06:08:10;95423.50;;;7.73;100.00
6829;BME280;17930;48.592;8.868;2023-04-01T06:10:48;95411.84;;;7.71;100.00
6829;BME280;17930;48.592;8.868;2023-04-01T06:13:22;95419.28;;;7.77;100.00
6829;BME280;17930;48.592;8.868;2023-04-01T06:15:57;95422.06;;;7.81;100.00
6829;BME280;17930;48.592;8.868;2023-04-01T06:21:41;95423.53;;;7.87;100.00
6829;BME280;17930;48.592;8.868;2023-04-01T06:24:31;95431.59;;;7.85;100.00
6829;BME280;17930;48.592;8.868;2023-04-01T06:27:07;95421.97;;;7.86;100.00
6829;BME280;17930;48.592;8.868;2023-04-01T06:29:49;95430.44;;;7.91;100.00
6829;BME280;17930;48.592;8.868;2023-04-01T06:32:32;95435.94;;;7.90;100.00
6829;BME280;17930;48.592;8.868;2023-04-01T06:35:50;95427.25;;;7.81;100.00
6829;BME280;17930;48.592;8.868;2023-04-01T06:38:29;95416.03;;;7.85;100.00
6829;BME280;17930;48.592;8.868;2023-04-01T06:41:18;95415.16;;;7.90;100.00
6829;BME280;17930;48.592;8.868;2023-04-01T06:43:57;95427.56;;;7.93;100.00
6829;BME280;17930;48.592;8.868;2023-04-01T06:46:34;95421.59;;;7.92;100.00
6829;BME280;17930;48.592;8.868;2023-04-01T06:49:24;95422.75;;;8.00;100.00
6829;BME280;17930;48.592;8.868;2023-04-01T06:51:58;95420.84;;;8.05;100.00
6829;BME280;17930;48.592;8.868;2023-04-01T06:54:30;95421.03;;;8.09;100.00
6829;BME280;17930;48.592;8.868;2023-04-01T06:57:02;95415.00;;;8.13;100.00
6829;BME280;17930;48.592;8.868;2023-04-01T06:59:34;95425.09;;;8.15;100.00
6829;BME280;17930;48.592;8.868;2023-04-01T07:02:10;95428.19;;;8.17;100.00
6829;BME280;17930;48.592;8.868;2023-04-01T07:04:44;95425.09;;;8.15;100.00
6829;BME280;17930;48.592;8.868;2023-04-01T07:07:15;95423.19;;;8.20;100.00
6829;BME280;17930;48.592;8.868;2023-04-01T07:09:49;95424.50;;;8.17;100.00
6829;BME280;17930;48.592;8.868;2023-04-01T07:12:32;95436.06;;;8.25;100.00
6829;BME280;17930;48.592;8.868;2023-04-01T07:15:12;95431.84;;;8.16;100.00
6829;BME280;17930;48.592;8.868;2023-04-01T07:17:42;95436.38;;;8.23;100.00
6829;BME280;17930;48.592;8.868;2023-04-01T07:20:16;95434.81;;;8.22;100.00
6829;BME280;17930;48.592;8.868;2023-04-01T07:22:48;95427.50;;;8.24;100.00
6829;BME280;17930;48.592;8.868;2023-04-01T07:25:17;95437.13;;;8.24;100.00
6829;BME280;17930;48.592;8.868;2023-04-01T07:27:45;95429.72;;;8.31;100.00
6829;BME280;17930;48.592;8.868;2023-04-01T07:30:18;95434.91;;;8.31;100.00
6829;BME280;17930;48.592;8.868;2023-04-01T07:32:47;95432.78;;;8.46;100.00
6829;BME280;17930;48.592;8.868;2023-04-01T07:35:22;95437.13;;;8.51;100.00
6829;BME280;17930;48.592;8.868;2023-04-01T07:38:01;95447.81;;;8.49;100.00
6829;BME280;17930;48.592;8.868;2023-04-01T07:40:39;95437.69;;;8.48;100.00
6829;BME280;17930;48.592;8.868;2023-04-01T07:43:22;95444.41;;;8.62;100.00
6829;BME280;17930;48.592;8.868;2023-04-01T07:45:58;95443.38;;;8.50;100.00
6829;BME280;17930;48.592;8.868;2023-04-01T07:48:33;95445.50;;;8.48;100.00
6829;BME280;17930;48.592;8.868;2023-04-01T07:51:11;95442.97;;;8.43;100.00
6829;BME280;17930;48.592;8.868;2023-04-01T07:53:44;95446.84;;;8.45;100.00
6829;BME280;17930;48.592;8.868;2023-04-01T07:56:17;95456.09;;;8.38;100.00
6829;BME280;17930;48.592;8.868;2023-04-01T07:58:56;95461.56;;;8.36;100.00
6829;BME280;17930;48.592;8.868;2023-04-01T08:01:31;95460.50;;;8.37;100.00
6829;BME280;17930;48.592;8.868;2023-04-01T08:04:19;95455.88;;;8.34;100.00
6829;BME280;17930;48.592;8.868;2023-04-01T08:06:51;95467.22;;;8.38;100.00
6829;BME280;17930;48.592;8.868;2023-04-01T08:09:26;95462.31;;;8.37;100.00
6829;BME280;17930;48.592;8.868;2023-04-01T08:12:04;95465.28;;;8.30;100.00
6829;BME280;17930;48.592;8.868;2023-04-01T08:14:41;95459.63;;;8.28;100.00
6829;BME280;17930;48.592;8.868;2023-04-01T08:17:17;95467.81;;;8.35;100.00
6829;BME280;17930;48.592;8.868;2023-04-01T08:19:56;95473.41;;;8.42;100.00
6829;BME280;17930;48.592;8.868;2023-04-01T08:22:29;95468.00;;;8.25;100.00
6829;BME280;17930;48.592;8.868;2023-04-01T08:25:00;95466.06;;;8.17;100.00
6829;BME280;17930;48.592;8.868;2023-04-01T08:27:34;95467.59;;;8.18;100.00
6829;BME280;17930;48.592;8.868;2023-04-01T08:30:04;95473.44;;;8.11;100.00
6829;BME280;17930;48.592;8.868;2023-04-01T08:32:35;95479.34;;;8.16;100.00
6829;BME280;17930;48.592;8.868;2023-04-01T08:35:08;95478.09;;;8.14;100.00
6829;BME280;17930;48.592;8.868;2023-04-01T08:37:41;95481.47;;;8.27;100.00
6829;BME280;17930;48.592;8.868;2023-04-01T08:40:41;95483.59;;;8.25;100.00
6829;BME280;17930;48.592;8.868;2023-04-01T08:43:25;95487.41;;;8.15;100.00
6829;BME280;17930;48.592;8.868;2023-04-01T08:46:06;95478.38;;;8.12;100.00
6829;BME280;17930;48.592;8.868;2023-04-01T08:48:57;95492.69;;;8.10;100.00
6829;BME280;17930;48.592;8.868;2023-04-01T08:51:47;95483.59;;;8.25;100.00
6829;BME280;17930;48.592;8.868;2023-04-01T08:54:43;95483.97;;;8.32;100.00
6829;BME280;17930;48.592;8.868;2023-04-01T08:57:15;95481.84;;;8.34;100.00
6829;BME280;17930;48.592;8.868;2023-04-01T08:59:57;95482.06;;;8.38;100.00
6829;BME280;17930;48.592;8.868;2023-04-01T09:06:15;95483.38;;;8.89;100.00
6829;BME280;17930;48.592;8.868;2023-04-01T09:09:02;95482.22;;;8.81;100.00
6829;BME280;17930;48.592;8.868;2023-04-01T09:11:44;95487.44;;;8.68;100.00
6829;BME280;17930;48.592;8.868;2023-04-01T09:14:52;95485.97;;;8.75;100.00
6829;BME280;17930;48.592;8.868;2023-04-01T09:17:47;95474.91;;;8.70;100.00
6829;BME280;17930;48.592;8.868;2023-04-01T09:20:43;95487.53;;;8.76;100.00
6829;BME280;17930;48.592;8.868;2023-04-01T09:23:33;95488.69;;;8.57;100.00
6829;BME280;17930;48.592;8.868;2023-04-01T09:29:18;95494.56;;;8.63;100.00
6829;BME280;17930;48.592;8.868;2023-04-01T09:32:04;95487.78;;;8.88;100.00
6829;BME280;17930;48.592;8.868;2023-04-01T09:34:55;95499.56;;;8.86;100.00
6829;BME280;17930;48.592;8.868;2023-04-01T09:37:34;95490.03;;;9.17;100.00
6829;BME280;17930;48.592;8.868;2023-04-01T09:40:17;95495.75;;;9.40;100.00
6829;BME280;17930;48.592;8.868;2023-04-01T09:42:54;95492.91;;;9.28;100.00
6829;BME280;17930;48.592;8.868;2023-04-01T09:45:41;95499.88;;;9.06;100.00
6829;BME280;17930;48.592;8.868;2023-04-01T09:48:25;95511.00;;;8.85;100.00
6829;BME280;17930;48.592;8.868;2023-04-01T09:51:03;95514.38;;;8.72;100.00
6829;BME280;17930;48.592;8.868;2023-04-01T09:53:45;95506.28;;;8.87;100.00
6829;BME280;17930;48.592;8.868;2023-04-01T09:56:52;95506.75;;;8.75;100.00
6829;BME280;17930;48.592;8.868;2023-04-01T09:59:49;95515.16;;;8.59;100.00
6829;BME280;17930;48.592;8.868;2023-04-01T10:08:58;95520.53;;;8.63;100.00
6829;BME280;17930;48.592;8.868;2023-04-01T10:11:58;95514.00;;;8.65;100.00
6829;BME280;17930;48.592;8.868;2023-04-01T10:14:52;95517.25;;;8.57;100.00
6829;BME280;17930;48.592;8.868;2023-04-01T10:17:53;95520.63;;;8.71;100.00
6829;BME280;17930;48.592;8.868;2023-04-01T10:20:42;95521.31;;;8.76;100.00
6829;BME280;17930;48.592;8.868;2023-04-01T10:23:21;95520.34;;;8.86;100.00
6829;BME280;17930;48.592;8.868;2023-04-01T10:25:57;95520.09;;;9.09;100.00
6829;BME280;17930;48.592;8.868;2023-04-01T10:29:01;95515.75;;;9.18;100.00
6829;BME280;17930;48.592;8.868;2023-04-01T10:31:54;95524.00;;;9.33;100.00
6829;BME280;17930;48.592;8.868;2023-04-01T10:35:03;95516.34;;;9.94;100.00
6829;BME280;17930;48.592;8.868;2023-04-01T10:37:48;95513.75;;;9.72;100.00
6829;BME280;17930;48.592;8.868;2023-04-01T10:40:36;95516.47;;;9.32;100.00
6829;BME280;17930;48.592;8.868;2023-04-01T10:43:26;95516.22;;;9.55;100.00
6829;BME280;17930;48.592;8.868;2023-04-01T10:46:34;95513.75;;;9.72;100.00
6829;BME280;17930;48.592;8.868;2023-04-01T10:49:37;95518.63;;;10.09;100.00
6829;BME280;17930;48.592;8.868;2023-04-01T10:52:33;95522.38;;;9.81;100.00
6829;BME280;17930;48.592;8.868;2023-04-01T10:55:23;95524.06;;;9.99;100.00
6829;BME280;17930;48.592;8.868;2023-04-01T10:58:34;95533.41;;;9.78;100.00
6829;BME280;17930;48.592;8.868;2023-04-01T11:01:22;95521.16;;;9.57;100.00
6829;BME280;17930;48.592;8.868;2023-04-01T11:07:26;95532.09;;;9.67;100.00
6829;BME280;17930;48.592;8.868;2023-04-01T11:10:30;95540.06;;;9.49;100.00
6829;BME280;17930;48.592;8.868;2023-04-01T11:13:32;95537.59;;;9.30;100.00
6829;BME280;17930;48.592;8.868;2023-04-01T11:19:29;95540.38;;;9.69;100.00
6829;BME280;17930;48.592;8.868;2023-04-01T11:22:23;95530.72;;;9.69;100.00
6829;BME280;17930;48.592;8.868;2023-04-01T11:25:19;95540.22;;;10.39;100.00
6829;BME280;17930;48.592;8.868;2023-04-01T11:28:00;95540.34;;;10.65;100.00
6829;BME280;17930;48.592;8.868;2023-04-01T11:30:43;95532.56;;;10.81;100.00
6829;BME280;17930;48.592;8.868;2023-04-01T11:33:19;95533.09;;;10.92;100.00
6829;BME280;17930;48.592;8.868;2023-04-01T11:35:59;95539.66;;;10.81;100.00
6829;BME280;17930;48.592;8.868;2023-04-01T11:38:48;95548.75;;;10.62;100.00
6829;BME280;17930;48.592;8.868;2023-04-01T11:41:25;95556.00;;;10.73;100.00
6829;BME280;17930;48.592;8.868;2023-04-01T11:44:10;95552.28;;;10.57;100.00
6829;BME280;17930;48.592;8.868;2023-04-01T11:46:48;95551.34;;;10.53;100.00
6829;BME280;17930;48.592;8.868;2023-04-01T11:49:33;95549.72;;;10.66;100.00
6829;BME280;17930;48.592;8.868;2023-04-01T11:52:15;95557.56;;;10.74;100.00
6829;BME280;17930;48.592;8.868;2023-04-01T11:55:01;95556.06;;;10.81;100.00
6829;BME280;17930;48.592;8.868;2023-04-01T11:58:04;95566.50;;;10.90;100.00
6829;BME280;17930;48.592;8.868;2023-04-01T12:00:48;95566.09;;;10.96;100.00
6829;BME280;17930;48.592;8.868;2023-04-01T12:03:39;95558.38;;;11.55;100.00
6829;BME280;17930;48.592;8.868;2023-04-01T12:06:14;95553.63;;;12.08;100.00
6829;BME280;17930;48.592;8.868;2023-04-01T12:08:46;95565.09;;;12.40;100.00
6829;BME280;17930;48.592;8.868;2023-04-01T12:11:24;95556.56;;;11.64;100.00
6829;BME280;17930;48.592;8.868;2023-04-01T12:14:04;95564.09;;;11.66;100.00
6829;BME280;17930;48.592;8.868;2023-04-01T12:16:47;95570.28;;;11.23;100.00
6829;BME280;17930;48.592;8.868;2023-04-01T12:19:23;95568.13;;;11.08;100.00
6829;BME280;17930;48.592;8.868;2023-04-01T12:24:46;95573.56;;;11.45;100.00
6829;BME280;17930;48.592;8.868;2023-04-01T12:27:27;95571.22;;;11.26;100.00
6829;BME280;17930;48.592;8.868;2023-04-01T12:30:21;95577.53;;;11.34;100.00
6829;BME280;17930;48.592;8.868;2023-04-01T12:32:59;95575.53;;;11.39;100.00
6829;BME280;17930;48.592;8.868;2023-04-01T12:35:39;95579.88;;;11.52;100.00
6829;BME280;17930;48.592;8.868;2023-04-01T12:38:25;95579.34;;;11.25;100.00
6829;BME280;17930;48.592;8.868;2023-04-01T12:41:09;95578.38;;;11.51;100.00
6829;BME280;17930;48.592;8.868;2023-04-01T12:43:58;95575.09;;;11.46;100.00
6829;BME280;17930;48.592;8.868;2023-04-01T12:46:31;95582.38;;;11.74;100.00
6829;BME280;17930;48.592;8.868;2023-04-01T12:49:34;95577.44;;;12.15;100.00
6829;BME280;17930;48.592;8.868;2023-04-01T12:52:09;95577.41;;;12.94;100.00
6829;BME280;17930;48.592;8.868;2023-04-01T12:55:07;95584.94;;;12.25;100.00
6829;BME280;17930;48.592;8.868;2023-04-01T12:58:02;95580.94;;;12.81;100.00
6829;BME280;17930;48.592;8.868;2023-04-01T13:00:46;95581.19;;;13.05;100.00
6829;BME280;17930;48.592;8.868;2023-04-01T13:03:24;95591.78;;;12.63;100.00
6829;BME280;17930;48.592;8.868;2023-04-01T13:06:17;95590.13;;;12.50;100.00
6829;BME280;17930;48.592;8.868;2023-04-01T13:08:53;95587.84;;;12.40;100.00
6829;BME280;17930;48.592;8.868;2023-04-01T13:11:34;95591.72;;;12.34;100.00
6829;BME280;17930;48.592;8.868;2023-04-01T13:14:16;95593.72;;;11.95;100.00
6829;BME280;17930;48.592;8.868;2023-04-01T13:16:48;95589.13;;;11.92;100.00
6829;BME280;17930;48.592;8.868;2023-04-01T13:19:21;95589.13;;;11.75;100.00
6829;BME280;17930;48.592;8.868;2023-04-01T13:21:56;95592.84;;;11.99;100.00
6829;BME280;17930;48.592;8.868;2023-04-01T13:24:35;95601.13;;;11.76;100.00
6829;BME280;17930;48.592;8.868;2023-04-01T13:27:10;95594.34;;;11.92;100.00
6829;BME280;17930;48.592;8.868;2023-04-01T13:29:43;95592.19;;;11.60;100.00
6829;BME280;17930;48.592;8.868;2023-04-01T13:32:22;95593.19;;;11.34;100.00
6829;BME280;17930;48.592;8.868;2023-04-01T13:35:06;95599.16;;;11.18;100.00
6829;BME280;17930;48.592;8.868;2023-04-01T13:37:49;95600.31;;;10.95;100.00
6829;BME280;17930;48.592;8.868;2023-04-01T13:40:28;95598.22;;;11.14;100.00
6829;BME280;17930;48.592;8.868;2023-04-01T13:43:02;95604.66;;;11.08;100.00
6829;BME280;17930;48.592;8.868;2023-04-01T13:45:37;95593.38;;;10.99;100.00
6829;BME280;17930;48.592;8.868;2023-04-01T13:48:30;95596.56;;;11.26;100.00
6829;BME280;17930;48.592;8.868;2023-04-01T13:51:15;95589.56;;;11.52;100.00
6829;BME280;17930;48.592;8.868;2023-04-01T13:56:48;95602.19;;;11.58;100.00
6829;BME280;17930;48.592;8.868;2023-04-01T14:02:24;95615.06;;;11.55;100.00
6829;BME280;17930;48.592;8.868;2023-04-01T14:05:08;95614.28;;;11.46;100.00
6829;BME280;17930;48.592;8.868;2023-04-01T14:07:50;95616.75;;;11.04;100.00
6829;BME280;17930;48.592;8.868;2023-04-01T14:10:29;95606.53;;;11.32;100.00
6829;BME280;17930;48.592;8.868;2023-04-01T14:13:06;95605.41;;;11.89;100.00
6829;BME280;17930;48.592;8.868;2023-04-01T14:15:50;95608.09;;;11.33;100.00
6829;BME280;17930;48.592;8.868;2023-04-01T14:18:32;95618.41;;;11.47;100.00
6829;BME280;17930;48.592;8.868;2023-04-01T14:21:15;95612.94;;;11.48;100.00
6829;BME280;17930;48.592;8.868;2023-04-01T14:24:08;95619.25;;;11.17;100.00
6829;BME280;17930;48.592;8.868;2023-04-01T14:30:03;95628.19;;;10.86;100.00